Time;durP1;ratioP1;P1;durP2;ratioP2;P2;SDS_P1;SDS_P2;PMS_P1;PMS_P2;Temp;Humidity;BMP_temperature;BMP_pressure;BME280_temperature;BME280_humidity;BME280_pressure;Samples;Min_cycle;Max_cycle;Signal;HPM_P1;HPM_P2
2022/07/20 00:00:11;;;;;;;0.52;0.40;;;23.50;77.60;;;;;;5146740;28;20111;-83
2022/07/20 00:02:38;;;;;;;1.25;0.45;;;23.50;77.70;;;;;;5147025;28;20047;-84
2022/07/20 00:05:05;;;;;;;0.40;0.40;;;23.40;78.30;;;;;;5146797;28;20096;-83
2022/07/20 00:07:32;;;;;;;0.80;0.60;;;23.40;78.00;;;;;;5163907;27;20036;-84
2022/07/20 00:12:44;;;;;;;0.35;0.35;;;23.40;78.10;;;;;;5147059;28;20073;-83
2022/07/20 00:15:10;;;;;;;0.73;0.43;;;23.30;78.10;;;;;;5130030;28;20044;-83
2022/07/20 00:17:37;;;;;;;0.40;0.40;;;23.30;78.60;;;;;;5129819;28;20476;-83
2022/07/20 00:20:05;;;;;;;0.60;0.50;;;23.30;78.40;;;;;;5129531;28;20180;-83
2022/07/20 00:22:31;;;;;;;0.93;0.70;;;23.20;78.90;;;;;;5130340;28;20151;-84
2022/07/20 00:24:58;;;;;;;0.80;0.50;;;23.20;79.30;;;;;;5129588;28;20093;-82
2022/07/20 00:27:25;;;;;;;0.60;0.40;;;23.10;79.60;;;;;;5129925;28;20072;-83
2022/07/20 00:29:51;;;;;;;0.40;0.30;;;23.10;79.40;;;;;;5129718;28;20036;-83
2022/07/20 00:32:18;;;;;;;0.70;0.43;;;23.10;79.30;;;;;;5129896;28;20048;-83
2022/07/20 00:34:45;;;;;;;0.75;0.60;;;23.10;78.60;;;;;;5148433;28;20047;-83
2022/07/20 00:37:12;;;;;;;0.30;0.30;;;23.10;80.00;;;;;;5167434;27;20476;-83
2022/07/20 00:39:38;;;;;;;0.45;0.30;;;23.00;79.90;;;;;;5150680;28;20419;-83
2022/07/20 00:42:05;;;;;;;0.55;0.50;;;22.90;80.00;;;;;;5134072;28;20086;-82
2022/07/20 00:44:32;;;;;;;0.70;0.50;;;22.90;79.50;;;;;;5151133;28;20075;-83
2022/07/20 00:46:58;;;;;;;1.23;0.60;;;22.90;81.00;;;;;;5150581;28;20040;-83
2022/07/20 00:49:25;;;;;;;0.65;0.35;;;22.80;81.00;;;;;;5150496;28;20110;-83
2022/07/20 00:51:52;;;;;;;0.35;0.30;;;22.70;81.20;;;;;;5150630;28;20039;-83
2022/07/20 00:54:19;;;;;;;0.40;0.35;;;22.60;80.50;;;;;;5150679;28;20042;-82
2022/07/20 00:56:46;;;;;;;0.75;0.50;;;22.60;80.50;;;;;;5133824;28;20492;-83
2022/07/20 00:59:13;;;;;;;0.98;0.40;;;22.50;81.40;;;;;;5150741;28;20442;-83
2022/07/20 01:01:40;;;;;;;2.70;0.40;;;22.50;80.60;;;;;;5150523;28;20039;-83
2022/07/20 01:04:07;;;;;;;0.45;0.40;;;22.50;81.00;;;;;;5167018;27;20426;-82
2022/07/20 01:06:34;;;;;;;0.40;0.32;;;22.50;80.80;;;;;;5133546;28;20051;-83
2022/07/20 01:09:03;;;;;;;0.93;0.57;;;22.40;81.70;;;;;;5167766;27;20053;-83
2022/07/20 01:11:33;;;;;;;0.90;0.50;;;22.40;81.10;;;;;;5149840;28;20412;-83
2022/07/20 01:14:03;;;;;;;0.65;0.50;;;22.40;80.70;;;;;;5149901;28;20042;-83
2022/07/20 01:16:30;;;;;;;0.20;0.20;;;22.30;81.20;;;;;;5150139;28;20140;-83
2022/07/20 01:18:56;;;;;;;0.40;0.30;;;22.40;81.00;;;;;;5167216;27;20093;-86
2022/07/20 01:21:23;;;;;;;0.40;0.40;;;22.30;80.80;;;;;;5150051;28;20489;-83
2022/07/20 01:23:50;;;;;;;0.40;0.40;;;22.30;81.60;;;;;;5184532;27;20040;-83
2022/07/20 01:26:18;;;;;;;0.30;0.30;;;22.30;81.20;;;;;;5150087;28;20082;-83
2022/07/20 01:28:45;;;;;;;0.20;0.20;;;22.30;81.20;;;;;;5146025;28;20086;-83
2022/07/20 01:31:12;;;;;;;0.63;0.50;;;22.30;80.60;;;;;;5117165;28;20052;-83
2022/07/20 01:33:39;;;;;;;0.30;0.30;;;22.20;81.40;;;;;;5095824;28;20036;-83
2022/07/20 01:36:06;;;;;;;0.60;0.50;;;22.20;81.20;;;;;;5095484;28;20040;-83
2022/07/20 01:38:33;;;;;;;0.70;0.40;;;22.10;81.40;;;;;;5128869;28;20395;-83
2022/07/20 01:41:00;;;;;;;0.38;0.38;;;22.10;82.10;;;;;;5095934;28;20039;-83
2022/07/20 01:43:27;;;;;;;0.77;0.43;;;22.10;82.20;;;;;;5101134;28;20119;-83
2022/07/20 01:45:53;;;;;;;0.80;0.50;;;22.00;83.10;;;;;;5149611;28;20036;-83
2022/07/20 01:48:20;;;;;;;0.52;0.40;;;21.90;82.90;;;;;;5149075;28;20496;-82
2022/07/20 01:50:47;;;;;;;0.30;0.30;;;21.90;82.50;;;;;;5149873;28;20122;-84
2022/07/20 01:53:13;;;;;;;0.88;0.45;;;21.90;83.50;;;;;;5183580;27;20551;-83
2022/07/20 01:55:40;;;;;;;0.45;0.32;;;21.80;83.20;;;;;;5132584;28;20040;-83
2022/07/20 01:58:06;;;;;;;0.47;0.40;;;21.70;83.90;;;;;;5149147;28;20046;-83
2022/07/20 02:00:33;;;;;;;0.40;0.40;;;21.60;84.00;;;;;;5132367;28;20175;-83
2022/07/20 02:03:00;;;;;;;0.50;0.40;;;21.60;84.30;;;;;;5149362;28;20036;-83
2022/07/20 02:05:27;;;;;;;1.17;0.40;;;21.60;84.00;;;;;;5131878;28;20039;-83
2022/07/20 02:07:53;;;;;;;0.43;0.40;;;21.50;84.70;;;;;;5166314;27;20042;-83
2022/07/20 02:10:20;;;;;;;0.60;0.38;;;21.40;85.10;;;;;;5149083;28;20047;-83
2022/07/20 02:12:46;;;;;;;0.38;0.30;;;21.40;84.90;;;;;;5149178;28;20089;-83
2022/07/20 02:18:03;;;;;;;0.52;0.43;;;21.30;86.00;;;;;;5149011;28;20481;-83
2022/07/20 02:20:30;;;;;;;1.25;0.60;;;21.20;86.50;;;;;;5148341;28;20372;-83
2022/07/20 02:22:56;;;;;;;0.40;0.30;;;21.20;85.80;;;;;;5149172;28;20042;-83
2022/07/20 02:25:23;;;;;;;0.35;0.28;;;21.10;86.60;;;;;;5148683;28;20075;-83
2022/07/20 02:27:50;;;;;;;0.70;0.40;;;21.10;86.70;;;;;;5165867;27;20484;-83
2022/07/20 02:30:16;;;;;;;0.47;0.40;;;21.10;86.70;;;;;;5131277;28;20043;-82
2022/07/20 02:32:43;;;;;;;0.75;0.50;;;21.00;87.40;;;;;;5131825;28;20097;-83
2022/07/20 02:35:10;;;;;;;0.35;0.30;;;21.00;86.70;;;;;;5148630;28;20039;-83
2022/07/20 02:37:36;;;;;;;0.45;0.45;;;21.00;86.40;;;;;;5148253;28;20087;-83
2022/07/20 02:40:04;;;;;;;0.68;0.45;;;20.90;86.60;;;;;;5131445;28;20058;-83
2022/07/20 02:42:31;;;;;;;0.52;0.50;;;20.90;86.00;;;;;;5148356;28;20089;-83
2022/07/20 02:44:57;;;;;;;0.20;0.20;;;20.90;85.90;;;;;;5165947;27;20047;-83
2022/07/20 02:47:24;;;;;;;0.45;0.30;;;20.90;86.40;;;;;;5148095;28;20035;-83
2022/07/20 02:49:51;;;;;;;0.38;0.35;;;20.90;86.50;;;;;;5148727;28;20043;-83
2022/07/20 02:52:18;;;;;;;0.20;0.20;;;20.90;86.80;;;;;;5148052;28;20508;-83
2022/07/20 02:54:44;;;;;;;0.32;0.30;;;20.90;86.10;;;;;;5131308;28;20039;-83
2022/07/20 02:57:11;;;;;;;0.40;0.35;;;20.90;86.10;;;;;;5130577;28;20036;-83
2022/07/20 02:59:37;;;;;;;0.68;0.50;;;20.90;86.10;;;;;;5147906;28;20044;-83
2022/07/20 03:02:05;;;;;;;0.95;0.50;;;20.90;86.00;;;;;;5131538;28;20200;-83
2022/07/20 03:04:31;;;;;;;0.65;0.50;;;20.90;85.90;;;;;;5147973;28;20040;-83
2022/07/20 03:06:58;;;;;;;0.57;0.43;;;20.90;86.20;;;;;;5131263;28;20044;-83
2022/07/20 03:09:25;;;;;;;0.40;0.30;;;20.90;87.10;;;;;;5113082;28;20047;-83
2022/07/20 03:11:51;;;;;;;0.30;0.30;;;20.90;85.60;;;;;;5127530;28;20046;-83
2022/07/20 03:14:18;;;;;;;0.50;0.50;;;20.90;86.20;;;;;;5113772;28;20084;-83
2022/07/20 03:16:45;;;;;;;0.75;0.40;;;20.90;85.80;;;;;;5113442;28;20096;-83
2022/07/20 03:19:11;;;;;;;0.82;0.40;;;20.80;86.40;;;;;;5130440;28;20036;-83
2022/07/20 03:21:38;;;;;;;0.80;0.65;;;20.90;85.60;;;;;;5109726;28;20844;-83
2022/07/20 03:24:05;;;;;;;0.52;0.52;;;20.90;85.70;;;;;;5126648;28;20039;-83
2022/07/20 03:26:31;;;;;;;0.68;0.40;;;20.90;85.70;;;;;;5145827;28;20100;-83
2022/07/20 03:28:58;;;;;;;0.30;0.28;;;20.90;86.00;;;;;;5096784;28;20055;-82
2022/07/20 03:31:25;;;;;;;0.63;0.40;;;20.80;87.70;;;;;;5113311;28;20042;-82
2022/07/20 03:33:51;;;;;;;0.35;0.22;;;20.80;86.70;;;;;;5097229;28;20130;-83
2022/07/20 03:36:18;;;;;;;0.70;0.50;;;20.80;86.70;;;;;;5113169;28;20411;-83
2022/07/20 03:38:45;;;;;;;1.10;0.65;;;20.70;86.40;;;;;;5118614;28;20048;-82
2022/07/20 03:41:11;;;;;;;0.57;0.40;;;20.80;86.70;;;;;;5136134;28;20043;-83
2022/07/20 03:43:38;;;;;;;0.68;0.40;;;20.70;86.90;;;;;;5158382;27;20043;-82
2022/07/20 03:46:05;;;;;;;0.35;0.30;;;20.70;87.20;;;;;;5121760;28;20046;-82
2022/07/20 03:48:32;;;;;;;0.77;0.50;;;20.60;87.40;;;;;;5133191;28;20073;-83
2022/07/20 03:50:59;;;;;;;0.35;0.35;;;20.60;88.30;;;;;;5119865;28;20513;-82
2022/07/20 03:53:28;;;;;;;0.47;0.47;;;20.60;88.40;;;;;;5098899;28;20475;-83
2022/07/20 03:55:55;;;;;;;0.50;0.40;;;20.60;87.60;;;;;;5120665;28;20073;-83
2022/07/20 03:58:21;;;;;;;0.30;0.30;;;20.60;87.30;;;;;;5172059;27;20039;-83
2022/07/20 04:00:48;;;;;;;0.57;0.35;;;20.60;87.50;;;;;;5126473;28;20039;-83
2022/07/20 04:03:15;;;;;;;0.43;0.30;;;20.60;87.50;;;;;;5130455;28;20094;-82
2022/07/20 04:05:41;;;;;;;0.50;0.50;;;20.60;87.70;;;;;;5114960;28;20040;-82
2022/07/20 04:08:08;;;;;;;0.82;0.50;;;20.60;88.70;;;;;;5092957;28;20089;-83
2022/07/20 04:10:35;;;;;;;0.28;0.25;;;20.60;89.10;;;;;;5134922;28;20042;-83
2022/07/20 04:13:03;;;;;;;0.70;0.55;;;20.50;88.70;;;;;;5113385;28;20032;-83
2022/07/20 04:15:30;;;;;;;0.47;0.40;;;20.50;89.20;;;;;;5146838;28;20036;-83
2022/07/20 04:17:57;;;;;;;0.47;0.40;;;20.40;89.90;;;;;;5113211;28;20127;-83
2022/07/20 04:20:24;;;;;;;0.77;0.50;;;20.40;90.20;;;;;;5129873;28;20043;-83
2022/07/20 04:22:51;;;;;;;0.50;0.45;;;20.40;90.80;;;;;;5129715;28;20035;-82
2022/07/20 04:25:18;;;;;;;0.35;0.25;;;20.30;90.50;;;;;;5129958;28;20545;-83
2022/07/20 04:27:45;;;;;;;0.65;0.50;;;20.30;90.80;;;;;;5147138;28;20052;-83
2022/07/20 04:30:12;;;;;;;0.73;0.47;;;20.20;91.10;;;;;;5113138;28;20044;-83
2022/07/20 04:32:39;;;;;;;0.30;0.30;;;20.30;91.10;;;;;;5146482;28;20119;-83
2022/07/20 04:35:06;;;;;;;0.75;0.57;;;20.20;91.50;;;;;;5146794;28;20073;-82
2022/07/20 04:37:33;;;;;;;0.75;0.50;;;20.30;91.70;;;;;;5146438;28;20154;-82
2022/07/20 04:40:01;;;;;;;0.20;0.20;;;20.20;92.20;;;;;;5129585;28;20130;-82
2022/07/20 04:42:27;;;;;;;0.77;0.43;;;20.20;91.90;;;;;;5147078;28;20092;-83
2022/07/20 04:44:54;;;;;;;0.60;0.43;;;20.30;92.40;;;;;;5146190;28;20549;-82
2022/07/20 04:47:21;;;;;;;1.00;0.45;;;20.30;92.40;;;;;;5129670;28;20407;-83
2022/07/20 04:49:48;;;;;;;0.60;0.40;;;20.30;92.50;;;;;;5146369;28;20043;-83
2022/07/20 04:52:15;;;;;;;0.75;0.35;;;20.30;92.90;;;;;;5146560;28;20035;-83
2022/07/20 04:54:42;;;;;;;0.40;0.40;;;20.30;92.60;;;;;;5146344;28;20075;-83
2022/07/20 04:57:09;;;;;;;0.35;0.30;;;20.30;92.60;;;;;;5147020;28;20048;-83
2022/07/20 04:59:37;;;;;;;0.50;0.40;;;20.40;92.60;;;;;;5146256;28;20097;-82
2022/07/20 05:02:04;;;;;;;0.52;0.40;;;20.50;92.40;;;;;;5146390;28;20028;-82
2022/07/20 05:04:31;;;;;;;0.55;0.47;;;20.60;92.00;;;;;;5146470;28;20511;-82
2022/07/20 05:06:57;;;;;;;1.10;0.45;;;20.60;92.20;;;;;;5146520;28;20293;-82
2022/07/20 05:09:25;;;;;;;0.60;0.45;;;20.70;91.80;;;;;;5129309;28;20040;-83
2022/07/20 05:11:52;;;;;;;1.50;0.60;;;20.70;91.70;;;;;;5146080;28;20036;-82
2022/07/20 05:14:18;;;;;;;0.30;0.30;;;20.80;91.60;;;;;;5163336;28;20053;-82
2022/07/20 05:16:45;;;;;;;0.38;0.38;;;20.90;91.40;;;;;;5146064;28;20085;-83
2022/07/20 05:19:12;;;;;;;0.60;0.43;;;21.00;90.90;;;;;;5163528;28;20038;-82
2022/07/20 05:21:38;;;;;;;0.93;0.57;;;21.00;91.50;;;;;;5132254;28;20135;-82
2022/07/20 05:24:05;;;;;;;0.82;0.50;;;21.10;90.60;;;;;;5150077;28;20039;-83
2022/07/20 05:26:32;;;;;;;0.85;0.60;;;21.20;90.10;;;;;;5149947;28;20067;-83
2022/07/20 05:28:59;;;;;;;0.47;0.40;;;21.30;90.50;;;;;;5150151;28;20077;-82
2022/07/20 05:31:26;;;;;;;0.40;0.40;;;21.40;90.20;;;;;;5133216;28;20044;-82
2022/07/20 05:33:52;;;;;;;0.93;0.50;;;21.50;90.10;;;;;;5132808;28;20389;-82
2022/07/20 05:36:19;;;;;;;0.63;0.40;;;21.60;90.60;;;;;;5167155;27;20096;-83
2022/07/20 05:38:46;;;;;;;0.82;0.50;;;21.60;90.60;;;;;;5166652;27;20073;-82
2022/07/20 05:41:12;;;;;;;0.40;0.40;;;21.60;91.00;;;;;;5133196;28;20122;-83
2022/07/20 05:43:39;;;;;;;0.45;0.40;;;21.60;91.20;;;;;;5167022;27;20559;-82
2022/07/20 05:46:06;;;;;;;0.50;0.50;;;21.60;91.10;;;;;;5149327;28;20043;-83
2022/07/20 05:48:32;;;;;;;1.02;0.50;;;21.70;91.50;;;;;;5132610;28;20077;-83
2022/07/20 05:50:59;;;;;;;0.85;0.55;;;21.70;91.30;;;;;;5149209;28;20495;-82
2022/07/20 05:53:26;;;;;;;1.33;0.47;;;21.80;91.20;;;;;;5166497;27;20040;-82
2022/07/20 05:55:53;;;;;;;0.68;0.45;;;21.90;91.30;;;;;;5149224;28;20039;-83
2022/07/20 05:58:19;;;;;;;0.93;0.57;;;21.90;90.80;;;;;;5155269;27;20096;-83
2022/07/20 06:00:46;;;;;;;0.43;0.43;;;22.10;90.70;;;;;;5124942;28;20111;-83
2022/07/20 06:03:13;;;;;;;0.60;0.50;;;22.20;90.60;;;;;;5111072;28;20040;-83
2022/07/20 06:05:39;;;;;;;2.15;0.57;;;22.30;90.40;;;;;;5115717;28;20119;-82
2022/07/20 06:08:06;;;;;;;0.70;0.50;;;22.40;90.30;;;;;;5128208;28;20501;-83
2022/07/20 06:10:34;;;;;;;0.25;0.25;;;22.50;90.40;;;;;;5116807;28;20815;-83
2022/07/20 06:13:02;;;;;;;1.02;0.65;;;22.60;90.50;;;;;;5148935;28;20038;-83
2022/07/20 06:15:29;;;;;;;0.50;0.50;;;22.60;90.00;;;;;;5133547;28;20044;-82
2022/07/20 06:17:56;;;;;;;0.57;0.40;;;22.80;90.00;;;;;;5097254;28;20043;-82
2022/07/20 06:20:24;;;;;;;0.57;0.40;;;22.80;90.10;;;;;;5123453;28;20122;-83
2022/07/20 06:22:51;;;;;;;0.50;0.50;;;22.90;90.30;;;;;;5143768;28;20566;-83
2022/07/20 06:25:19;;;;;;;0.88;0.57;;;23.00;90.40;;;;;;5114753;28;20027;-83
2022/07/20 06:27:45;;;;;;;0.52;0.40;;;23.10;89.90;;;;;;5145579;28;20043;-82
2022/07/20 06:30:13;;;;;;;0.82;0.52;;;23.20;90.00;;;;;;5116842;28;20036;-82
2022/07/20 06:32:40;;;;;;;0.98;0.52;;;23.40;90.00;;;;;;5138805;28;20043;-82
2022/07/20 06:35:07;;;;;;;0.43;0.40;;;23.50;89.70;;;;;;5125708;28;20039;-82
2022/07/20 06:37:34;;;;;;;0.40;0.40;;;23.60;90.10;;;;;;5115541;28;20051;-82
2022/07/20 06:40:01;;;;;;;0.30;0.28;;;23.70;89.80;;;;;;5111900;28;20125;-82
2022/07/20 06:42:27;;;;;;;0.50;0.40;;;23.80;90.20;;;;;;5102263;28;20035;-82
2022/07/20 06:44:54;;;;;;;0.57;0.50;;;23.90;90.30;;;;;;5156594;27;20032;-81
2022/07/20 06:47:21;;;;;;;1.05;0.70;;;24.00;90.20;;;;;;5126156;28;20104;-83
2022/07/20 06:49:48;;;;;;;0.50;0.50;;;24.20;90.20;;;;;;5148241;28;20044;-82
2022/07/20 06:52:15;;;;;;;0.63;0.40;;;24.30;90.10;;;;;;5147946;28;20065;-81
2022/07/20 06:54:42;;;;;;;0.75;0.47;;;24.40;90.50;;;;;;5165329;27;20036;-81
2022/07/20 06:57:08;;;;;;;0.50;0.40;;;24.60;90.00;;;;;;5161769;27;20036;-82
2022/07/20 06:59:37;;;;;;;0.60;0.55;;;24.70;90.30;;;;;;5146446;27;20714;-82
2022/07/20 07:02:05;;;;;;;0.77;0.60;;;24.80;90.00;;;;;;5110516;28;20036;-82
2022/07/20 07:04:32;;;;;;;0.65;0.50;;;25.10;89.60;;;;;;5150719;27;20115;-81
2022/07/20 07:06:58;;;;;;;1.13;0.63;;;25.30;89.40;;;;;;5131454;28;20818;-82
2022/07/20 07:09:25;;;;;;;1.48;0.60;;;25.40;89.70;;;;;;5110308;28;20040;-81
2022/07/20 07:11:52;;;;;;;0.47;0.40;;;25.60;89.40;;;;;;5128431;28;20096;-82
2022/07/20 07:14:18;;;;;;;0.82;0.60;;;25.70;88.70;;;;;;5079727;28;20415;-81
2022/07/20 07:16:48;;;;;;;0.50;0.50;;;25.90;88.90;;;;;;5094950;28;20052;-82
2022/07/20 07:19:15;;;;;;;1.10;0.60;;;26.10;88.50;;;;;;5127581;28;20040;-81
2022/07/20 07:21:41;;;;;;;0.75;0.57;;;26.20;85.90;;;;;;5113449;28;20067;-81
2022/07/20 07:24:08;;;;;;;0.88;0.45;;;26.30;87.20;;;;;;5147336;28;20046;-82
2022/07/20 07:26:35;;;;;;;0.68;0.52;;;26.40;87.10;;;;;;5131098;28;20075;-81
2022/07/20 07:29:02;;;;;;;0.88;0.60;;;26.50;85.30;;;;;;5127012;28;20040;-81
2022/07/20 07:31:29;;;;;;;1.13;0.60;;;26.60;84.60;;;;;;5144169;28;20052;-80
2022/07/20 07:33:55;;;;;;;1.80;0.60;;;26.70;86.40;;;;;;5094170;28;20050;-80
2022/07/20 07:36:22;;;;;;;0.82;0.60;;;26.70;86.80;;;;;;5104745;28;20070;-81
2022/07/20 07:38:49;;;;;;;1.65;0.82;;;26.80;85.90;;;;;;5113808;28;20048;-81
2022/07/20 07:41:16;;;;;;;0.88;0.52;;;26.90;85.60;;;;;;5097793;28;20036;-81
2022/07/20 07:43:43;;;;;;;0.70;0.50;;;27.00;84.50;;;;;;5096969;28;20092;-83
2022/07/20 07:46:09;;;;;;;0.90;0.70;;;27.10;83.10;;;;;;5112724;28;20039;-82
2022/07/20 07:48:36;;;;;;;1.00;0.70;;;27.20;83.90;;;;;;5125886;28;20545;-83
2022/07/20 07:51:03;;;;;;;0.80;0.60;;;27.30;83.30;;;;;;5124019;28;20094;-83
2022/07/20 07:53:30;;;;;;;0.60;0.60;;;27.40;83.60;;;;;;5157650;27;20105;-83
2022/07/20 07:55:56;;;;;;;1.38;0.85;;;27.50;81.70;;;;;;5146941;28;20043;-83
2022/07/20 07:58:23;;;;;;;0.63;0.50;;;27.50;81.00;;;;;;5124869;28;20066;-83
2022/07/20 08:00:50;;;;;;;2.88;0.70;;;27.50;82.30;;;;;;5109636;28;20403;-83
2022/07/20 08:03:17;;;;;;;0.45;0.45;;;27.60;81.00;;;;;;5130011;28;20039;-83
2022/07/20 08:05:44;;;;;;;1.17;0.77;;;27.70;82.10;;;;;;5147078;28;20112;-84
2022/07/20 08:08:13;;;;;;;0.77;0.57;;;27.70;79.60;;;;;;5146755;28;20043;-84
2022/07/20 08:10:40;;;;;;;1.00;0.70;;;27.80;79.60;;;;;;5129830;28;20492;-84
2022/07/20 08:13:08;;;;;;;1.02;0.55;;;27.90;82.30;;;;;;5147389;28;20040;-84
2022/07/20 08:15:35;;;;;;;0.68;0.60;;;27.90;82.00;;;;;;5126169;28;20036;-83
2022/07/20 08:18:02;;;;;;;0.85;0.60;;;28.00;81.60;;;;;;5114259;28;20040;-84
2022/07/20 08:20:29;;;;;;;1.10;0.68;;;28.10;80.90;;;;;;5143207;28;20048;-84
2022/07/20 08:22:56;;;;;;;1.25;0.90;;;28.20;82.70;;;;;;5092816;28;20793;-83
2022/07/20 08:25:23;;;;;;;1.23;0.70;;;28.20;79.60;;;;;;5128637;28;20035;-83
2022/07/20 08:27:50;;;;;;;0.88;0.70;;;28.30;81.70;;;;;;5146168;28;20081;-84
2022/07/20 08:30:17;;;;;;;0.50;0.50;;;28.40;81.80;;;;;;5163683;28;20071;-83
2022/07/20 08:32:44;;;;;;;2.88;1.05;;;28.40;81.10;;;;;;5130192;28;20099;-84
2022/07/20 08:35:10;;;;;;;1.00;0.70;;;28.50;82.00;;;;;;5146748;28;20548;-83
2022/07/20 08:37:38;;;;;;;1.40;0.90;;;28.60;81.80;;;;;;5146011;28;20094;-84
2022/07/20 08:40:06;;;;;;;1.17;0.80;;;28.70;83.10;;;;;;5128823;28;20074;-83
2022/07/20 08:42:33;;;;;;;0.88;0.70;;;28.70;81.60;;;;;;5128176;28;20039;-83
2022/07/20 08:45:00;;;;;;;2.05;0.85;;;28.80;81.60;;;;;;5109418;28;20035;-84
2022/07/20 08:47:30;;;;;;;0.82;0.68;;;28.80;81.00;;;;;;5123947;28;20032;-85
2022/07/20 08:49:57;;;;;;;1.23;0.85;;;28.80;80.20;;;;;;5128984;28;20039;-83
2022/07/20 08:52:24;;;;;;;1.20;0.80;;;28.90;82.30;;;;;;5109705;28;20043;-84
2022/07/20 08:54:51;;;;;;;1.20;0.80;;;29.00;83.00;;;;;;5145375;28;20031;-84
2022/07/20 08:57:18;;;;;;;1.55;0.88;;;29.00;82.00;;;;;;5134421;28;20048;-83
2022/07/20 08:59:46;;;;;;;1.42;0.80;;;29.00;81.70;;;;;;5123242;28;20679;-84
2022/07/20 09:02:13;;;;;;;1.20;0.80;;;29.10;81.60;;;;;;5136253;28;20039;-84
2022/07/20 09:04:53;;;;;;;0.80;0.70;;;29.20;82.80;;;;;;5160596;27;20048;-83
2022/07/20 09:07:44;;;;;;;1.65;1.00;;;29.20;83.20;;;;;;5159264;27;20059;-84
2022/07/20 09:10:20;;;;;;;2.90;1.00;;;29.20;82.80;;;;;;5131839;28;20066;-84
2022/07/20 09:13:09;;;;;;;1.90;0.90;;;29.30;83.70;;;;;;5132411;28;20122;-84
2022/07/20 09:15:52;;;;;;;1.50;0.88;;;29.30;84.00;;;;;;5163961;27;20061;-83
2022/07/20 09:18:22;;;;;;;1.63;1.17;;;29.30;84.20;;;;;;5125622;28;20504;-86
2022/07/20 09:21:03;;;;;;;1.52;1.00;;;29.40;84.90;;;;;;5128352;28;20522;-83
2022/07/20 09:23:33;;;;;;;3.45;1.30;;;29.40;85.70;;;;;;5128713;28;20817;-82
2022/07/20 09:26:02;;;;;;;2.67;1.40;;;29.50;85.60;;;;;;5145138;27;20068;-83
2022/07/20 09:28:50;;;;;;;3.42;1.45;;;29.50;86.00;;;;;;5130267;28;20067;-85
2022/07/20 09:31:30;;;;;;;2.70;1.40;;;29.60;87.70;;;;;;5128787;28;20067;-86
2022/07/20 09:33:58;;;;;;;2.75;1.58;;;29.70;88.30;;;;;;5155116;27;20067;-84
2022/07/20 09:36:30;;;;;;;1.80;1.20;;;29.70;89.10;;;;;;5121632;28;20028;-84
2022/07/20 09:39:14;;;;;;;2.60;1.50;;;29.80;90.10;;;;;;5148727;27;20055;-84
2022/07/20 09:41:50;;;;;;;2.70;1.40;;;29.90;90.30;;;;;;5135095;28;20097;-84
2022/07/20 09:44:24;;;;;;;2.60;1.58;;;29.90;90.30;;;;;;5134977;28;20118;-84
2022/07/20 09:46:51;;;;;;;2.30;1.45;;;29.90;90.60;;;;;;5132106;28;20027;-83
2022/07/20 09:49:17;;;;;;;2.53;1.65;;;29.90;90.80;;;;;;5135335;28;20044;-83
2022/07/20 09:51:47;;;;;;;3.25;1.55;;;30.00;91.20;;;;;;5131278;28;20080;-83
2022/07/20 09:54:15;;;;;;;6.47;1.58;;;30.10;91.30;;;;;;5131963;28;20044;-83
2022/07/20 09:56:48;;;;;;;2.92;1.95;;;30.20;91.50;;;;;;5131888;28;20338;-83
2022/07/20 09:59:16;;;;;;;4.15;2.15;;;30.10;91.30;;;;;;5132317;28;20035;-83
2022/07/20 10:01:54;;;;;;;3.13;1.88;;;30.10;91.60;;;;;;5166001;27;20031;-83
2022/07/20 10:04:21;;;;;;;5.53;2.22;;;30.00;91.10;;;;;;5149112;28;20040;-83
2022/07/20 10:06:51;;;;;;;3.95;2.33;;;30.00;91.70;;;;;;5148892;28;20044;-84
2022/07/20 10:09:18;;;;;;;3.05;1.98;;;30.00;91.40;;;;;;5142028;28;20047;-84
2022/07/20 10:11:47;;;;;;;3.83;2.38;;;30.00;92.30;;;;;;5128488;28;20043;-83
2022/07/20 10:14:17;;;;;;;2.45;1.75;;;30.10;91.40;;;;;;5132034;28;20056;-83
2022/07/20 10:16:48;;;;;;;3.70;1.90;;;30.10;91.30;;;;;;5125347;28;20173;-84
2022/07/20 10:19:15;;;;;;;3.78;2.35;;;30.10;91.50;;;;;;5145706;28;20051;-84
2022/07/20 10:21:53;;;;;;;3.10;2.05;;;30.30;91.70;;;;;;5138939;28;20036;-83
2022/07/20 10:24:30;;;;;;;9.93;2.00;;;30.10;91.20;;;;;;5166555;27;20035;-84
2022/07/20 10:27:06;;;;;;;3.17;2.10;;;30.20;91.40;;;;;;5114036;28;20040;-83
2022/07/20 10:29:38;;;;;;;2.92;1.88;;;30.40;91.50;;;;;;5147983;28;20042;-83
2022/07/20 10:32:11;;;;;;;3.83;2.15;;;30.50;91.10;;;;;;5137278;28;20039;-84
2022/07/20 10:34:40;;;;;;;3.17;2.05;;;30.60;91.60;;;;;;5130906;28;20040;-84
2022/07/20 10:37:34;;;;;;;2.90;1.77;;;30.60;90.80;;;;;;5156969;27;20046;-84
2022/07/20 10:40:06;;;;;;;3.97;2.30;;;30.60;90.70;;;;;;5148126;28;20036;-84
2022/07/20 10:42:38;;;;;;;3.05;1.92;;;30.60;91.00;;;;;;5148362;28;20377;-85
2022/07/20 10:45:11;;;;;;;3.35;1.77;;;30.60;90.60;;;;;;5127760;28;20036;-85
2022/07/20 10:47:49;;;;;;;3.17;1.95;;;30.60;90.90;;;;;;5125413;28;20035;-85
2022/07/20 10:50:24;;;;;;;4.40;1.70;;;30.70;90.80;;;;;;5129273;28;20501;-84
2022/07/20 10:52:59;;;;;;;3.00;2.00;;;30.60;90.60;;;;;;5137236;28;20065;-85
2022/07/20 10:55:34;;;;;;;2.97;1.85;;;30.40;90.40;;;;;;5129468;28;20469;-84
2022/07/20 10:58:11;;;;;;;5.22;2.10;;;30.40;90.00;;;;;;5124340;28;20036;-84
2022/07/20 11:00:38;;;;;;;3.30;1.92;;;30.40;90.00;;;;;;5138149;28;20086;-84
2022/07/20 11:03:23;;;;;;;3.65;2.10;;;30.50;90.00;;;;;;5117081;28;20464;-83
2022/07/20 11:06:05;;;;;;;3.00;1.70;;;30.40;89.60;;;;;;5124948;28;20115;-84
2022/07/20 11:08:33;;;;;;;2.72;1.70;;;30.40;89.90;;;;;;5164328;27;20042;-84
2022/07/20 11:11:01;;;;;;;3.30;2.35;;;30.60;90.10;;;;;;5147655;28;20373;-85
2022/07/20 11:13:28;;;;;;;3.53;1.75;;;30.60;87.10;;;;;;5138194;28;20123;-84
2022/07/20 11:16:02;;;;;;;2.55;1.65;;;30.50;85.40;;;;;;5128169;28;20032;-84
2022/07/20 11:18:31;;;;;;;2.80;1.98;;;30.50;85.00;;;;;;5154046;27;20096;-84
2022/07/20 11:20:59;;;;;;;3.08;1.98;;;30.40;84.20;;;;;;5110281;28;20036;-84
2022/07/20 11:23:37;;;;;;;3.00;1.70;;;30.50;86.80;;;;;;5147328;28;20075;-84
2022/07/20 11:26:03;;;;;;;2.22;1.42;;;30.60;86.60;;;;;;5130543;28;20484;-84
2022/07/20 11:28:33;;;;;;;2.25;1.33;;;30.80;87.50;;;;;;5130299;28;20060;-84
2022/07/20 11:31:05;;;;;;;2.53;1.55;;;31.00;84.40;;;;;;5137463;28;20056;-84
2022/07/20 11:33:34;;;;;;;2.60;1.58;;;31.00;83.60;;;;;;5144297;28;20032;-84
2022/07/20 11:36:04;;;;;;;3.13;1.98;;;30.80;82.00;;;;;;5147405;28;20047;-83
2022/07/20 11:38:53;;;;;;;2.70;1.75;;;30.90;84.30;;;;;;5125123;28;20047;-85
2022/07/20 11:41:40;;;;;;;2.78;1.67;;;30.90;83.00;;;;;;5120478;28;20042;-84
2022/07/20 11:44:13;;;;;;;2.40;1.30;;;30.80;82.70;;;;;;5141671;28;20032;-84
2022/07/20 11:46:45;;;;;;;2.05;1.30;;;30.80;82.40;;;;;;5147025;28;20042;-83
2022/07/20 11:49:15;;;;;;;2.25;1.60;;;30.80;82.90;;;;;;5125778;28;20432;-84
2022/07/20 11:51:51;;;;;;;2.50;1.50;;;30.90;82.50;;;;;;5119552;28;20736;-85
2022/07/20 11:54:23;;;;;;;2.50;1.50;;;30.90;80.60;;;;;;5138415;28;20043;-84
2022/07/20 11:56:51;;;;;;;1.85;1.30;;;31.00;82.80;;;;;;5152371;27;20077;-84
2022/07/20 11:59:19;;;;;;;2.30;1.30;;;31.10;81.60;;;;;;5117084;28;20036;-84
2022/07/20 12:01:52;;;;;;;2.72;1.33;;;31.20;81.20;;;;;;5125419;28;20067;-84
2022/07/20 12:04:19;;;;;;;2.00;1.40;;;31.10;81.70;;;;;;5124179;28;20044;-84
2022/07/20 12:06:46;;;;;;;1.70;1.17;;;31.10;82.90;;;;;;5112966;28;20039;-84
2022/07/20 12:09:16;;;;;;;2.63;1.30;;;31.10;82.80;;;;;;5147149;27;20117;-84
2022/07/20 12:12:04;;;;;;;2.63;1.35;;;31.00;82.40;;;;;;5123969;28;20036;-87
2022/07/20 12:14:41;;;;;;;2.00;1.20;;;31.00;82.10;;;;;;5130457;28;20496;-80
2022/07/20 12:17:17;;;;;;;1.90;1.33;;;31.00;80.90;;;;;;5123758;28;20031;-83
2022/07/20 12:19:45;;;;;;;2.22;1.05;;;31.00;83.30;;;;;;5137478;28;20094;-82
2022/07/20 12:22:16;;;;;;;1.70;1.10;;;31.10;84.00;;;;;;5146098;28;20524;-83
2022/07/20 12:25:20;;;;;;;1.75;0.98;;;31.10;82.10;;;;;;5127375;28;20043;-88
2022/07/20 12:27:48;;;;;;;2.60;1.10;;;31.10;81.90;;;;;;5139997;28;20114;-86
2022/07/20 12:30:24;;;;;;;4.55;1.00;;;31.00;81.90;;;;;;5130453;28;20031;-86
2022/07/20 12:33:15;;;;;;;2.33;1.30;;;31.10;82.90;;;;;;5130751;28;20142;-86
2022/07/20 12:35:47;;;;;;;1.80;1.10;;;31.10;82.60;;;;;;5154353;27;20065;-86
2022/07/20 12:38:15;;;;;;;1.92;1.20;;;31.00;82.40;;;;;;5133396;28;20043;-86
2022/07/20 12:40:48;;;;;;;2.00;1.17;;;31.10;83.10;;;;;;5148035;28;20738;-87
2022/07/20 12:43:27;;;;;;;2.70;1.50;;;31.20;83.00;;;;;;5151136;28;20036;-86
2022/07/20 12:45:55;;;;;;;1.85;1.15;;;31.20;83.90;;;;;;5125841;28;20040;-86
2022/07/20 12:48:22;;;;;;;2.75;1.20;;;31.30;83.70;;;;;;5144477;28;20119;-86
2022/07/20 12:50:49;;;;;;;1.98;1.15;;;31.20;83.60;;;;;;5113788;28;20140;-86
2022/07/20 12:53:15;;;;;;;1.88;0.98;;;31.20;83.20;;;;;;5118338;28;20396;-86
2022/07/20 12:55:42;;;;;;;2.00;1.20;;;31.20;82.60;;;;;;5136891;28;20041;-86
2022/07/20 12:58:10;;;;;;;2.33;1.10;;;31.20;83.70;;;;;;5133518;28;20047;-86
2022/07/20 13:00:37;;;;;;;2.47;1.30;;;31.20;82.40;;;;;;5133106;28;20489;-86